createdAt,value
2022-12-17T00:03:29.270Z,32.42
2022-12-17T00:06:14.994Z,35.00
2022-12-17T00:09:00.421Z,35.95
2022-12-17T00:11:46.257Z,33.85
2022-12-17T00:17:16.937Z,32.45
2022-12-17T00:20:02.273Z,35.80
2022-12-17T00:22:47.716Z,36.58
2022-12-17T00:25:32.949Z,36.55
2022-12-17T00:28:22.834Z,36.90
2022-12-17T00:31:11.397Z,35.70
2022-12-17T00:34:17.227Z,35.58
2022-12-17T00:37:02.889Z,33.67
2022-12-17T00:39:49.188Z,36.45
2022-12-17T00:42:34.483Z,33.05
2022-12-17T00:45:19.936Z,35.75
2022-12-17T00:48:06.839Z,38.15
2022-12-17T00:50:52.759Z,36.65
2022-12-17T00:53:38.276Z,35.80
2022-12-17T00:56:24.528Z,36.47
2022-12-17T00:59:09.815Z,35.00
2022-12-17T01:01:55.306Z,35.25
2022-12-17T01:04:42.536Z,34.78
2022-12-17T01:07:28.093Z,37.95
2022-12-17T01:10:13.579Z,35.17
2022-12-17T01:12:58.914Z,36.53
2022-12-17T01:15:44.256Z,37.20
2022-12-17T01:18:37.325Z,35.58
2022-12-17T01:21:23.053Z,34.60
2022-12-17T01:26:54.023Z,35.15
2022-12-17T01:29:41.441Z,36.50
2022-12-17T01:32:26.774Z,37.53
2022-12-17T01:35:12.163Z,37.05
2022-12-17T01:37:57.386Z,38.15
2022-12-17T01:40:42.926Z,38.33
2022-12-17T01:43:31.926Z,35.67
2022-12-17T01:46:17.882Z,36.72
2022-12-17T01:49:06.382Z,38.63
2022-12-17T01:51:54.381Z,38.85
2022-12-17T01:54:40.231Z,38.20
2022-12-17T01:57:26.560Z,40.10
2022-12-17T02:00:25.234Z,39.55
2022-12-17T02:03:10.773Z,37.78
2022-12-17T02:06:15.129Z,36.80
2022-12-17T02:09:12.651Z,36.67
2022-12-17T02:12:32.308Z,36.53
2022-12-17T02:15:47.066Z,38.90
2022-12-17T02:18:47.001Z,37.72
2022-12-17T02:21:32.704Z,37.80
2022-12-17T02:27:26.331Z,36.95
2022-12-17T02:30:21.650Z,38.22
2022-12-17T02:33:10.316Z,38.85
2022-12-17T02:36:12.325Z,38.45
2022-12-17T02:38:57.822Z,38.25
2022-12-17T02:41:50.685Z,38.92
2022-12-17T02:44:39.986Z,36.85
2022-12-17T02:47:29.897Z,37.67
2022-12-17T02:50:15.290Z,38.92
2022-12-17T02:53:06.207Z,38.53
2022-12-17T02:55:53.565Z,40.65
2022-12-17T02:58:39.095Z,38.63
2022-12-17T03:01:25.038Z,38.25
2022-12-17T03:04:10.404Z,38.03
2022-12-17T03:06:56.011Z,38.58
2022-12-17T03:09:41.811Z,38.67
2022-12-17T03:12:27.828Z,37.53
2022-12-17T03:15:13.491Z,38.25
2022-12-17T03:17:58.761Z,38.75
2022-12-17T03:20:44.397Z,39.63
2022-12-17T03:26:20.645Z,39.90
2022-12-17T03:29:07.071Z,39.55
2022-12-17T03:31:52.878Z,39.17
2022-12-17T03:34:38.436Z,40.88
2022-12-17T03:37:24.366Z,40.67
2022-12-17T03:40:09.654Z,39.17
2022-12-17T03:42:55.268Z,40.05
2022-12-17T03:45:40.893Z,40.10
2022-12-17T03:51:18.468Z,39.28
2022-12-17T03:54:04.284Z,35.22
2022-12-17T03:56:49.901Z,38.03
2022-12-17T03:59:35.250Z,37.50
2022-12-17T04:02:20.768Z,38.50
2022-12-17T04:05:06.590Z,37.33
2022-12-17T04:07:52.729Z,38.20
2022-12-17T04:10:38.584Z,37.88
2022-12-17T04:13:23.977Z,39.40
2022-12-17T04:16:10.204Z,37.33
2022-12-17T04:18:55.772Z,38.97
2022-12-17T04:21:41.222Z,35.22
2022-12-17T04:24:26.502Z,37.28
2022-12-17T04:27:11.848Z,36.42
2022-12-17T04:29:57.704Z,35.80
2022-12-17T04:32:43.078Z,38.38
2022-12-17T04:35:28.855Z,37.30
2022-12-17T04:40:59.791Z,37.40
2022-12-17T04:43:44.994Z,37.47
2022-12-17T04:49:16.260Z,35.60
2022-12-17T04:52:01.595Z,35.42
2022-12-17T04:54:47.222Z,37.80
2022-12-17T05:00:18.145Z,35.63
2022-12-17T05:03:03.626Z,36.17
2022-12-17T05:05:48.863Z,36.75
2022-12-17T05:08:39.633Z,36.95
2022-12-17T05:11:26.600Z,34.90
2022-12-17T05:14:19.486Z,33.95
2022-12-17T05:17:05.255Z,31.48
2022-12-17T05:22:36.142Z,33.53
2022-12-17T05:25:22.440Z,37.83
2022-12-17T05:28:08.010Z,38.53
2022-12-17T05:30:54.072Z,35.40
2022-12-17T05:33:39.923Z,37.83
2022-12-17T05:36:26.004Z,38.85
2022-12-17T05:39:11.748Z,37.20
2022-12-17T05:44:42.801Z,37.60
2022-12-17T05:47:31.088Z,36.75
2022-12-17T05:50:16.362Z,35.85
2022-12-17T05:53:01.680Z,36.65
2022-12-17T05:55:47.865Z,36.72
2022-12-17T05:58:33.169Z,37.42
2022-12-17T06:01:23.886Z,37.03
2022-12-17T06:04:10.410Z,37.40
2022-12-17T06:06:55.957Z,37.83
2022-12-17T06:09:41.293Z,36.78
2022-12-17T06:12:26.530Z,36.97
2022-12-17T06:15:12.072Z,37.25
2022-12-17T06:18:00.409Z,36.85
2022-12-17T06:20:46.360Z,37.17
2022-12-17T06:23:31.584Z,36.25
2022-12-17T06:26:16.935Z,37.50
2022-12-17T06:29:02.909Z,37.70
2022-12-17T06:31:48.410Z,35.25
2022-12-17T06:34:33.879Z,35.45
2022-12-17T06:37:19.855Z,38.20
2022-12-17T06:40:05.159Z,39.28
2022-12-17T06:42:50.831Z,38.90
2022-12-17T06:48:24.408Z,34.30
2022-12-17T06:51:15.152Z,36.72
2022-12-17T06:54:01.082Z,35.22
2022-12-17T06:56:46.534Z,37.30
2022-12-17T06:59:31.864Z,38.70
2022-12-17T07:02:17.418Z,39.58
2022-12-17T07:07:48.434Z,34.78
2022-12-17T07:10:34.090Z,38.63
2022-12-17T07:16:13.983Z,37.38
2022-12-17T07:18:59.590Z,36.58
2022-12-17T07:21:45.413Z,36.13
2022-12-17T07:24:31.638Z,38.95
2022-12-17T07:30:02.224Z,38.10
2022-12-17T07:32:47.772Z,37.15
2022-12-17T07:35:33.370Z,35.40
2022-12-17T07:38:21.818Z,38.22
2022-12-17T07:41:08.199Z,37.83
2022-12-17T07:43:53.848Z,38.92
2022-12-17T07:46:39.859Z,39.15
2022-12-17T07:49:26.049Z,37.17
2022-12-17T07:52:12.506Z,40.17
2022-12-17T07:54:58.649Z,37.33
2022-12-17T07:57:44.773Z,40.90
2022-12-17T08:00:31.810Z,39.63
2022-12-17T08:03:36.797Z,36.15
2022-12-17T08:06:22.678Z,39.90
2022-12-17T08:09:07.914Z,39.50
2022-12-17T08:11:53.238Z,39.05
2022-12-17T08:14:38.734Z,39.55
2022-12-17T08:17:23.965Z,41.63
2022-12-17T08:20:09.527Z,42.05
2022-12-17T08:22:55.102Z,41.53
2022-12-17T08:25:40.619Z,45.00
2022-12-17T08:28:49.668Z,45.60
2022-12-17T08:31:32.889Z,43.85
2022-12-17T08:34:18.436Z,45.33
2022-12-17T08:37:04.166Z,45.13
2022-12-17T08:42:35.210Z,46.25
2022-12-17T08:45:20.493Z,50.53
2022-12-17T08:48:08.316Z,49.97
2022-12-17T08:50:53.951Z,50.55
2022-12-17T08:56:25.589Z,46.60
2022-12-17T08:59:10.902Z,48.53
2022-12-17T09:01:56.222Z,47.10
2022-12-17T09:04:41.896Z,51.28
2022-12-17T09:07:27.726Z,47.13
2022-12-17T09:10:13.493Z,48.97
2022-12-17T09:15:50.527Z,40.50
2022-12-17T09:18:41.665Z,40.85
2022-12-17T09:21:27.631Z,40.97
2022-12-17T09:24:12.974Z,41.10
2022-12-17T09:26:58.498Z,37.92
2022-12-17T09:29:43.783Z,39.80
2022-12-17T09:32:29.163Z,43.03
2022-12-17T09:35:14.561Z,43.38
2022-12-17T09:38:00.153Z,40.72
2022-12-17T09:40:45.865Z,44.88
2022-12-17T09:46:51.519Z,43.70
2022-12-17T09:49:46.660Z,45.10
2022-12-17T09:52:43.666Z,42.92
2022-12-17T09:55:48.353Z,43.83
2022-12-17T09:58:56.812Z,42.65
2022-12-17T10:01:47.582Z,42.33
2022-12-17T10:05:02.864Z,40.65
2022-12-17T10:07:55.172Z,41.35
2022-12-17T10:10:50.682Z,41.08
2022-12-17T10:13:42.157Z,34.88
2022-12-17T10:16:56.482Z,36.97
2022-12-17T10:19:49.079Z,40.58
2022-12-17T10:22:39.408Z,35.50
2022-12-17T10:25:40.760Z,35.25
2022-12-17T10:28:41.056Z,32.55
2022-12-17T10:31:38.538Z,33.05
2022-12-17T10:34:47.921Z,33.15
2022-12-17T10:37:39.600Z,33.25
2022-12-17T10:40:50.457Z,35.10
2022-12-17T10:43:49.625Z,36.33
2022-12-17T10:46:52.688Z,36.60
2022-12-17T10:49:43.650Z,36.67
2022-12-17T10:52:47.691Z,35.40
2022-12-17T10:55:49.453Z,40.80
2022-12-17T10:58:44.865Z,40.63
2022-12-17T11:01:40.449Z,41.42
2022-12-17T11:04:54.949Z,40.00
2022-12-17T11:08:01.940Z,38.92
2022-12-17T11:10:55.556Z,41.13
2022-12-17T11:13:54.634Z,38.88
2022-12-17T11:17:00.437Z,42.47
2022-12-17T11:20:12.962Z,39.27
2022-12-17T11:23:18.095Z,39.75
2022-12-17T11:26:23.935Z,43.05
2022-12-17T11:29:09.305Z,43.67
2022-12-17T11:32:25.184Z,41.47
2022-12-17T11:35:25.418Z,39.45
2022-12-17T11:38:42.403Z,40.65
2022-12-17T11:45:08.965Z,40.30
2022-12-17T11:48:20.882Z,40.67
2022-12-17T11:51:36.584Z,41.97
2022-12-17T11:54:58.938Z,41.38
2022-12-17T11:58:05.811Z,41.72
2022-12-17T12:01:13.197Z,42.47
2022-12-17T12:04:17.708Z,45.35
2022-12-17T12:07:15.476Z,43.72
2022-12-17T12:10:50.522Z,43.92
2022-12-17T12:13:51.001Z,45.15
2022-12-17T12:17:08.527Z,44.60
2022-12-17T12:20:18.579Z,42.60
2022-12-17T12:23:25.600Z,39.40
2022-12-17T12:26:26.194Z,43.38
2022-12-17T12:29:42.196Z,40.42
2022-12-17T12:32:50.237Z,39.88
2022-12-17T12:35:43.137Z,36.85
2022-12-17T12:38:46.954Z,33.42
2022-12-17T12:41:39.576Z,35.40
2022-12-17T12:44:55.224Z,35.42
2022-12-17T12:48:21.517Z,37.00
2022-12-17T12:51:34.192Z,37.17
2022-12-17T12:54:45.066Z,37.10
2022-12-17T12:57:58.066Z,35.97
2022-12-17T13:01:09.585Z,34.95
2022-12-17T13:04:02.887Z,34.30
2022-12-17T13:06:48.790Z,32.03
2022-12-17T13:09:15.733Z,34.80
2022-12-17T13:12:02.159Z,32.75
2022-12-17T13:14:33.492Z,31.65
2022-12-17T13:17:08.389Z,32.05
2022-12-17T13:19:42.124Z,30.05
2022-12-17T13:22:23.322Z,26.40
2022-12-17T13:25:21.561Z,27.73
2022-12-17T13:27:50.834Z,27.55
2022-12-17T13:30:17.935Z,28.30
2022-12-17T13:33:14.870Z,27.83
2022-12-17T13:36:23.677Z,25.52
2022-12-17T13:39:10.372Z,25.05
2022-12-17T13:41:38.732Z,23.77
2022-12-17T13:44:33.269Z,24.95
2022-12-17T13:47:00.914Z,22.98
2022-12-17T13:49:30.553Z,26.00
2022-12-17T13:52:23.914Z,22.92
2022-12-17T13:54:51.129Z,25.15
2022-12-17T13:57:25.828Z,24.95
2022-12-17T13:59:56.812Z,25.67
2022-12-17T14:02:29.555Z,22.95
2022-12-17T14:05:07.212Z,25.40
2022-12-17T14:07:39.059Z,23.20
2022-12-17T14:10:16.570Z,26.15
2022-12-17T14:12:45.170Z,26.10
2022-12-17T14:15:28.593Z,27.20
2022-12-17T14:17:58.728Z,27.52
2022-12-17T14:20:34.038Z,25.38
2022-12-17T14:25:57.747Z,21.15
2022-12-17T14:28:33.149Z,22.55
2022-12-17T14:31:26.522Z,24.48
2022-12-17T14:34:13.619Z,24.85
2022-12-17T14:36:43.699Z,26.48
2022-12-17T14:39:30.012Z,28.40
2022-12-17T14:42:26.309Z,30.13
2022-12-17T14:45:00.853Z,29.55
2022-12-17T14:47:32.954Z,36.67
2022-12-17T14:50:25.842Z,30.23
2022-12-17T14:52:57.736Z,30.00
2022-12-17T14:55:55.254Z,28.15
2022-12-17T14:58:25.548Z,24.20
2022-12-17T15:01:14.542Z,23.63
2022-12-17T15:03:48.466Z,21.90
2022-12-17T15:06:20.459Z,20.02
2022-12-17T15:08:50.435Z,20.27
2022-12-17T15:11:20.877Z,20.67
2022-12-17T15:13:51.587Z,19.48
2022-12-17T15:16:23.426Z,18.67
2022-12-17T15:18:50.570Z,19.02
2022-12-17T15:21:19.597Z,20.20
2022-12-17T15:23:48.317Z,19.05
2022-12-17T15:26:15.269Z,18.83
2022-12-17T15:28:44.063Z,19.08
2022-12-17T15:31:13.950Z,19.10
2022-12-17T15:33:42.028Z,19.15
2022-12-17T15:36:12.081Z,21.50
2022-12-17T15:38:39.620Z,19.60
2022-12-17T15:41:25.618Z,19.17
2022-12-17T15:46:19.564Z,17.65
2022-12-17T15:48:50.111Z,18.27
2022-12-17T15:51:20.029Z,20.63
2022-12-17T15:53:48.504Z,18.70
2022-12-17T15:56:26.248Z,17.67
2022-12-17T15:58:56.824Z,18.90
2022-12-17T16:01:24.342Z,19.20
2022-12-17T16:03:51.857Z,18.23
2022-12-17T16:06:18.759Z,19.40
2022-12-17T16:08:46.180Z,19.27
2022-12-17T16:11:16.700Z,17.38
2022-12-17T16:13:43.714Z,17.38
2022-12-17T16:16:10.794Z,20.70
2022-12-17T16:18:38.766Z,19.15
2022-12-17T16:21:08.300Z,18.65
2022-12-17T16:23:35.554Z,18.83
2022-12-17T16:26:05.603Z,17.75
2022-12-17T16:28:32.824Z,19.83
2022-12-17T16:31:11.281Z,18.88
2022-12-17T16:33:42.363Z,20.95
2022-12-17T16:36:15.416Z,20.55
2022-12-17T16:38:52.760Z,21.70
2022-12-17T16:41:21.861Z,21.55
2022-12-17T16:43:49.695Z,19.17
2022-12-17T16:46:31.252Z,19.88
2022-12-17T16:49:04.910Z,20.08
2022-12-17T16:51:32.390Z,20.80
2022-12-17T16:53:59.664Z,21.23
2022-12-17T16:56:28.494Z,20.25
2022-12-17T16:58:56.547Z,18.83
2022-12-17T17:01:28.061Z,18.70
2022-12-17T17:03:56.254Z,19.30
2022-12-17T17:06:26.774Z,18.75
2022-12-17T17:08:57.189Z,19.70
2022-12-17T17:11:25.676Z,18.13
2022-12-17T17:13:54.428Z,17.58
2022-12-17T17:16:24.622Z,20.20
2022-12-17T17:18:53.940Z,19.75
2022-12-17T17:21:21.569Z,18.73
2022-12-17T17:23:53.429Z,22.40
2022-12-17T17:26:24.996Z,19.75
2022-12-17T17:28:52.069Z,18.75
2022-12-17T17:31:21.649Z,19.13
2022-12-17T17:33:51.582Z,22.90
2022-12-17T17:36:31.026Z,19.77
2022-12-17T17:39:00.533Z,20.50
2022-12-17T17:41:30.181Z,22.52
2022-12-17T17:44:06.959Z,22.05
2022-12-17T17:46:35.271Z,20.77
2022-12-17T17:49:06.765Z,22.33
2022-12-17T17:52:08.533Z,21.23
2022-12-17T17:54:24.712Z,22.23
2022-12-17T17:56:51.615Z,19.88
2022-12-17T17:59:19.276Z,19.00
2022-12-17T18:01:51.754Z,19.35
2022-12-17T18:04:22.027Z,20.17
2022-12-17T18:07:23.108Z,20.83
2022-12-17T18:09:36.150Z,19.52
2022-12-17T18:12:23.286Z,21.58
2022-12-17T18:15:13.064Z,18.73
2022-12-17T18:17:37.133Z,20.65
2022-12-17T18:20:04.708Z,19.50
2022-12-17T18:22:31.763Z,18.85
2022-12-17T18:24:58.764Z,18.00
2022-12-17T18:27:25.755Z,18.35
2022-12-17T18:29:52.749Z,19.42
2022-12-17T18:32:20.107Z,18.25
2022-12-17T18:34:47.070Z,19.27
2022-12-17T18:37:14.191Z,17.83
2022-12-17T18:39:41.300Z,19.30
2022-12-17T18:42:27.777Z,19.10
2022-12-17T18:44:54.941Z,16.17
2022-12-17T18:47:21.887Z,17.77
2022-12-17T18:49:48.943Z,18.48
2022-12-17T18:52:17.207Z,17.38
2022-12-17T18:54:45.331Z,19.98
2022-12-17T18:57:13.289Z,18.35
2022-12-17T18:59:41.146Z,16.70
2022-12-17T19:02:15.396Z,16.83
2022-12-17T19:04:42.699Z,17.73
2022-12-17T19:07:10.228Z,17.70
2022-12-17T19:09:39.348Z,17.63
2022-12-17T19:12:08.934Z,16.98
2022-12-17T19:14:36.658Z,16.45
2022-12-17T19:17:05.977Z,16.55
2022-12-17T19:19:33.591Z,17.58
2022-12-17T19:22:00.943Z,18.48
2022-12-17T19:24:28.591Z,17.25
2022-12-17T19:26:55.859Z,17.33
2022-12-17T19:29:23.291Z,17.90
2022-12-17T19:31:50.625Z,16.50
2022-12-17T19:34:19.883Z,16.85
2022-12-17T19:36:47.676Z,17.65
2022-12-17T19:39:18.186Z,16.52
2022-12-17T19:41:46.280Z,17.50
2022-12-17T19:44:16.063Z,16.23
2022-12-17T19:46:44.367Z,17.92
2022-12-17T19:49:14.122Z,16.15
2022-12-17T19:51:43.879Z,18.45
2022-12-17T19:54:13.810Z,16.35
2022-12-17T19:56:42.258Z,16.15
2022-12-17T19:59:11.446Z,17.33
2022-12-17T20:01:46.346Z,19.65
2022-12-17T20:04:16.663Z,17.13
2022-12-17T20:06:46.185Z,16.70
2022-12-17T20:09:15.290Z,16.05
2022-12-17T20:11:42.225Z,16.73
2022-12-17T20:14:22.303Z,17.38
2022-12-17T20:16:54.713Z,15.88
2022-12-17T20:19:30.994Z,16.55
2022-12-17T20:22:00.627Z,16.52
2022-12-17T20:24:31.434Z,17.73
2022-12-17T20:27:00.372Z,17.50
2022-12-17T20:29:27.770Z,15.60
2022-12-17T20:31:55.778Z,15.68
2022-12-17T20:34:24.376Z,17.95
2022-12-17T20:36:53.053Z,15.98
2022-12-17T20:39:26.133Z,17.15
2022-12-17T20:41:55.498Z,15.55
2022-12-17T20:44:22.443Z,14.80
2022-12-17T20:46:49.350Z,15.43
2022-12-17T20:49:16.396Z,16.75
2022-12-17T20:51:43.622Z,15.32
2022-12-17T20:54:11.410Z,15.68
2022-12-17T20:56:40.727Z,15.13
2022-12-17T20:59:13.353Z,14.80
2022-12-17T21:01:40.706Z,14.75
2022-12-17T21:04:08.149Z,16.13
2022-12-17T21:06:43.661Z,14.63
2022-12-17T21:09:11.981Z,15.70
2022-12-17T21:11:40.925Z,15.75
2022-12-17T21:14:14.774Z,16.80
2022-12-17T21:16:44.222Z,15.13
2022-12-17T21:19:19.293Z,15.45
2022-12-17T21:21:46.577Z,15.10
2022-12-17T21:24:13.501Z,15.93
2022-12-17T21:26:43.297Z,15.15
2022-12-17T21:29:10.656Z,16.50
2022-12-17T21:31:42.648Z,17.23
2022-12-17T21:34:18.403Z,15.90
2022-12-17T21:36:45.411Z,15.55
2022-12-17T21:39:14.824Z,16.50
2022-12-17T21:42:04.933Z,15.10
2022-12-17T21:44:32.127Z,15.68
2022-12-17T21:46:59.656Z,14.23
2022-12-17T21:49:26.835Z,14.23
2022-12-17T21:51:54.602Z,14.88
2022-12-17T21:54:21.453Z,15.73
2022-12-17T21:56:48.701Z,14.52
2022-12-17T21:59:15.799Z,14.35
2022-12-17T22:01:43.310Z,14.98
2022-12-17T22:04:10.402Z,14.73
2022-12-17T22:06:42.013Z,14.90
2022-12-17T22:09:41.940Z,13.82
2022-12-17T22:12:27.708Z,15.00
2022-12-17T22:14:54.640Z,13.40
2022-12-17T22:17:22.049Z,16.13
2022-12-17T22:19:49.037Z,16.42
2022-12-17T22:22:15.882Z,15.73
2022-12-17T22:24:43.225Z,14.60
2022-12-17T22:27:10.702Z,16.67
2022-12-17T22:30:03.737Z,16.38
2022-12-17T22:32:49.299Z,16.55
2022-12-17T22:37:15.114Z,16.90
2022-12-17T22:42:02.351Z,16.92
2022-12-17T22:43:35.828Z,16.90
2022-12-17T22:44:44.635Z,16.83
2022-12-17T22:46:27.648Z,16.33
2022-12-17T22:48:55.773Z,16.98
2022-12-17T22:51:23.913Z,16.58
2022-12-17T22:57:02.032Z,15.63
2022-12-17T22:59:25.070Z,16.77
2022-12-17T23:01:51.958Z,16.33
2022-12-17T23:04:18.929Z,15.82
2022-12-17T23:06:46.496Z,15.52
2022-12-17T23:09:18.200Z,15.75
2022-12-17T23:11:49.224Z,16.55
2022-12-17T23:14:18.238Z,16.50
2022-12-17T23:16:45.511Z,16.40
2022-12-17T23:19:13.615Z,16.23
2022-12-17T23:21:41.099Z,16.70
2022-12-17T23:24:08.851Z,17.42
2022-12-17T23:26:37.487Z,16.45
2022-12-17T23:29:17.666Z,16.67
2022-12-17T23:31:47.389Z,16.88
2022-12-17T23:34:15.422Z,15.10
2022-12-17T23:36:42.505Z,17.30
2022-12-17T23:39:09.477Z,16.92
2022-12-17T23:41:36.587Z,16.58
2022-12-17T23:44:03.616Z,18.30
2022-12-17T23:46:31.478Z,17.95
2022-12-17T23:48:58.735Z,20.88
2022-12-17T23:51:26.552Z,17.65
2022-12-17T23:53:53.524Z,17.70
2022-12-17T23:56:26.279Z,18.25
2022-12-17T23:59:05.145Z,16.90
